createdAt,value
2024-02-20T00:00:09.371Z,7.53
2024-02-20T00:02:43.500Z,8.98
2024-02-20T00:05:11.523Z,6.90
2024-02-20T00:07:39.142Z,6.47
2024-02-20T00:10:12.141Z,6.63
2024-02-20T00:12:39.624Z,9.05
2024-02-20T00:15:08.320Z,6.20
2024-02-20T00:17:36.159Z,6.93
2024-02-20T00:20:07.076Z,7.22
2024-02-20T00:22:34.902Z,5.78
2024-02-20T00:25:02.193Z,9.10
2024-02-20T00:27:31.314Z,6.20
2024-02-20T00:29:58.571Z,5.72
2024-02-20T00:32:25.543Z,5.78
2024-02-20T00:34:52.653Z,6.78
2024-02-20T00:37:19.729Z,8.38
2024-02-20T00:39:46.681Z,6.30
2024-02-20T00:42:13.610Z,5.43
2024-02-20T00:44:41.166Z,8.65
2024-02-20T00:47:11.239Z,7.32
2024-02-20T00:49:41.937Z,8.88
2024-02-20T00:52:09.250Z,8.63
2024-02-20T00:54:42.480Z,9.18
2024-02-20T00:57:11.401Z,9.60
2024-02-20T00:59:39.185Z,10.30
2024-02-20T01:02:11.980Z,9.18
2024-02-20T01:04:41.429Z,10.02
2024-02-20T01:07:09.054Z,8.30
2024-02-20T01:09:36.334Z,9.57
2024-02-20T01:12:03.753Z,8.05
2024-02-20T01:14:31.858Z,8.15
2024-02-20T01:16:58.970Z,9.52
2024-02-20T01:19:26.533Z,7.47
2024-02-20T01:21:53.692Z,7.68
2024-02-20T01:24:20.713Z,8.50
2024-02-20T01:26:47.619Z,11.68
2024-02-20T01:29:14.688Z,8.20
2024-02-20T01:31:41.649Z,9.68
2024-02-20T01:34:09.171Z,8.68
2024-02-20T01:36:36.158Z,6.65
2024-02-20T01:39:03.074Z,15.32
2024-02-20T01:41:30.085Z,10.48
2024-02-20T01:43:56.967Z,9.57
2024-02-20T01:46:24.256Z,9.38
2024-02-20T01:48:52.210Z,9.90
2024-02-20T01:51:23.981Z,12.65
2024-02-20T01:53:52.555Z,9.05
2024-02-20T01:56:19.780Z,10.70
2024-02-20T01:58:49.052Z,10.85
2024-02-20T02:01:16.525Z,10.80
2024-02-20T02:03:43.606Z,8.55
2024-02-20T02:06:10.704Z,12.88
2024-02-20T02:08:37.694Z,11.52
2024-02-20T02:11:04.632Z,11.27
2024-02-20T02:13:31.906Z,13.43
2024-02-20T02:15:58.896Z,14.95
2024-02-20T02:18:26.036Z,12.57
2024-02-20T02:20:53.257Z,10.95
2024-02-20T02:23:20.379Z,11.45
2024-02-20T02:25:47.257Z,15.55
2024-02-20T02:28:14.181Z,11.35
2024-02-20T02:30:41.185Z,10.30
2024-02-20T02:33:08.807Z,12.52
2024-02-20T02:35:35.915Z,12.25
2024-02-20T02:38:03.531Z,14.52
2024-02-20T02:40:30.948Z,10.18
2024-02-20T02:42:58.165Z,13.23
2024-02-20T02:45:25.557Z,17.23
2024-02-20T02:47:53.643Z,17.00
2024-02-20T02:50:21.018Z,13.35
2024-02-20T02:52:48.193Z,15.95
2024-02-20T02:55:15.302Z,15.32
2024-02-20T02:57:42.340Z,14.93
2024-02-20T03:00:13.012Z,15.00
2024-02-20T03:02:40.191Z,15.65
2024-02-20T03:05:08.675Z,15.60
2024-02-20T03:07:35.634Z,13.70
2024-02-20T03:10:03.314Z,13.52
2024-02-20T03:12:32.801Z,14.18
2024-02-20T03:15:01.078Z,14.38
2024-02-20T03:17:28.209Z,16.67
2024-02-20T03:19:55.237Z,12.98
2024-02-20T03:22:22.447Z,16.42
2024-02-20T03:24:49.373Z,14.32
2024-02-20T03:27:17.175Z,12.98
2024-02-20T03:29:44.188Z,13.45
2024-02-20T03:32:11.414Z,13.73
2024-02-20T03:34:38.564Z,15.05
2024-02-20T03:37:05.732Z,15.48
2024-02-20T03:39:32.816Z,13.25
2024-02-20T03:42:00.073Z,16.50
2024-02-20T03:44:27.101Z,13.07
2024-02-20T03:46:54.029Z,14.52
2024-02-20T03:49:21.314Z,13.15
2024-02-20T03:51:48.428Z,13.68
2024-02-20T03:54:15.406Z,13.00
2024-02-20T03:56:42.663Z,16.83
2024-02-20T03:59:09.864Z,12.93
2024-02-20T04:01:36.996Z,16.10
2024-02-20T04:04:04.564Z,15.32
2024-02-20T04:06:32.364Z,14.90
2024-02-20T04:09:05.268Z,13.85
2024-02-20T04:11:32.708Z,10.60
2024-02-20T04:14:00.086Z,13.30
2024-02-20T04:16:28.199Z,13.63
2024-02-20T04:18:55.359Z,11.52
2024-02-20T04:21:22.464Z,14.23
2024-02-20T04:23:50.180Z,14.55
2024-02-20T04:26:17.224Z,17.23
2024-02-20T04:28:44.235Z,12.73
2024-02-20T04:31:11.254Z,14.52
2024-02-20T04:33:38.983Z,14.43
2024-02-20T04:36:06.384Z,15.48
2024-02-20T04:38:33.300Z,12.35
2024-02-20T04:41:00.773Z,14.18
2024-02-20T04:43:27.897Z,15.63
2024-02-20T04:45:55.097Z,15.27
2024-02-20T04:48:22.226Z,14.75
2024-02-20T04:50:49.403Z,16.77
2024-02-20T04:53:16.367Z,16.25
2024-02-20T04:55:43.403Z,14.98
2024-02-20T04:58:10.868Z,17.75
2024-02-20T05:00:38.268Z,14.95
2024-02-20T05:03:06.215Z,16.42
2024-02-20T05:05:33.168Z,13.93
2024-02-20T05:08:00.192Z,16.83
2024-02-20T05:10:27.300Z,14.85
2024-02-20T05:12:54.414Z,17.67
2024-02-20T05:15:21.369Z,19.05
2024-02-20T05:17:48.465Z,16.35
2024-02-20T05:20:15.536Z,15.75
2024-02-20T05:22:42.732Z,15.98
2024-02-20T05:25:10.036Z,22.08
2024-02-20T05:27:37.357Z,17.60
2024-02-20T05:30:05.735Z,19.50
2024-02-20T05:32:32.830Z,19.02
2024-02-20T05:35:00.286Z,14.45
2024-02-20T05:37:27.309Z,14.10
2024-02-20T05:39:54.418Z,16.63
2024-02-20T05:42:21.407Z,13.68
2024-02-20T05:44:48.294Z,14.90
2024-02-20T05:47:15.224Z,16.83
2024-02-20T05:49:42.962Z,14.00
2024-02-20T05:52:11.829Z,15.63
2024-02-20T05:54:39.490Z,19.25
2024-02-20T05:57:06.820Z,14.10
2024-02-20T05:59:33.758Z,17.02
2024-02-20T06:02:00.901Z,17.33
2024-02-20T06:04:28.091Z,16.45
2024-02-20T06:06:55.306Z,14.18
2024-02-20T06:09:22.244Z,14.13
2024-02-20T06:11:49.335Z,18.23
2024-02-20T06:14:17.290Z,21.55
2024-02-20T06:16:44.393Z,13.70
2024-02-20T06:19:11.579Z,17.17
2024-02-20T06:21:39.623Z,16.10
2024-02-20T06:24:06.646Z,18.13
2024-02-20T06:26:35.955Z,17.30
2024-02-20T06:29:03.397Z,17.17
2024-02-20T06:31:30.420Z,14.73
2024-02-20T06:33:57.697Z,16.05
2024-02-20T06:36:24.786Z,18.17
2024-02-20T06:38:52.255Z,20.77
2024-02-20T06:41:19.261Z,16.70
2024-02-20T06:43:46.215Z,16.90
2024-02-20T06:46:13.314Z,16.15
2024-02-20T06:48:40.401Z,15.30
2024-02-20T06:51:07.373Z,15.35
2024-02-20T06:53:34.359Z,19.60
2024-02-20T06:56:01.806Z,17.10
2024-02-20T06:58:29.305Z,19.77
2024-02-20T07:00:56.622Z,20.45
2024-02-20T07:03:23.586Z,20.67
2024-02-20T07:05:50.680Z,24.27
2024-02-20T07:08:19.060Z,17.33
2024-02-20T07:10:46.368Z,19.42
2024-02-20T07:13:13.688Z,18.30
2024-02-20T07:15:40.952Z,16.42
2024-02-20T07:18:09.048Z,18.23
2024-02-20T07:20:37.910Z,17.65
2024-02-20T07:23:05.370Z,21.10
2024-02-20T07:25:32.823Z,17.63
2024-02-20T07:27:59.793Z,17.55
2024-02-20T07:30:31.847Z,17.17
2024-02-20T07:32:59.720Z,15.43
2024-02-20T07:35:27.154Z,18.30
2024-02-20T07:37:54.417Z,16.63
2024-02-20T07:40:21.518Z,16.52
2024-02-20T07:42:49.029Z,16.25
2024-02-20T07:45:16.063Z,18.60
2024-02-20T07:47:43.068Z,17.63
2024-02-20T07:50:10.576Z,21.15
2024-02-20T07:52:37.742Z,18.25
2024-02-20T07:55:05.229Z,15.02
2024-02-20T07:57:35.456Z,14.23
2024-02-20T08:00:06.650Z,15.27
2024-02-20T08:02:39.448Z,18.83
2024-02-20T08:05:07.192Z,20.48
2024-02-20T08:07:34.781Z,16.67
2024-02-20T08:10:02.344Z,13.98
2024-02-20T08:12:29.287Z,17.33
2024-02-20T08:14:56.469Z,14.80
2024-02-20T08:17:23.537Z,14.13
2024-02-20T08:19:50.984Z,12.90
2024-02-20T08:22:18.138Z,17.58
2024-02-20T08:24:45.984Z,14.95
2024-02-20T08:27:13.233Z,14.35
2024-02-20T08:29:40.232Z,14.32
2024-02-20T08:32:07.143Z,14.90
2024-02-20T08:34:34.258Z,19.50
2024-02-20T08:37:01.211Z,16.42
2024-02-20T08:39:28.297Z,18.17
2024-02-20T08:41:55.289Z,16.20
2024-02-20T08:44:24.965Z,16.27
2024-02-20T08:46:51.869Z,15.38
2024-02-20T08:49:19.012Z,16.33
2024-02-20T08:51:46.053Z,17.02
2024-02-20T08:54:13.149Z,13.80
2024-02-20T08:56:39.975Z,16.88
2024-02-20T08:59:06.949Z,15.50
2024-02-20T09:01:34.036Z,15.65
2024-02-20T09:04:01.731Z,14.25
2024-02-20T09:06:28.906Z,14.82
2024-02-20T09:08:56.339Z,13.95
2024-02-20T09:11:23.434Z,13.98
2024-02-20T09:13:50.575Z,16.20
2024-02-20T09:16:17.583Z,14.95
2024-02-20T09:18:44.601Z,14.20
2024-02-20T09:21:16.158Z,13.65
2024-02-20T09:23:44.704Z,11.32
2024-02-20T09:26:13.228Z,11.57
2024-02-20T09:28:40.116Z,15.85
2024-02-20T09:31:07.380Z,12.65
2024-02-20T09:33:34.610Z,8.60
2024-02-20T09:36:01.768Z,11.38
2024-02-20T09:38:28.686Z,8.93
2024-02-20T09:40:56.160Z,11.27
2024-02-20T09:43:23.424Z,6.85
2024-02-20T09:45:51.896Z,8.30
2024-02-20T09:48:20.419Z,8.57
2024-02-20T09:50:49.337Z,6.85
2024-02-20T09:53:20.549Z,7.82
2024-02-20T09:55:52.982Z,6.10
2024-02-20T09:58:20.164Z,6.07
2024-02-20T10:00:47.336Z,7.60
2024-02-20T10:03:15.327Z,5.38
2024-02-20T10:05:48.584Z,5.45
2024-02-20T10:08:15.850Z,3.55
2024-02-20T10:10:47.985Z,6.45
2024-02-20T10:13:15.569Z,2.75
2024-02-20T10:15:42.483Z,3.70
2024-02-20T10:18:09.562Z,3.58
2024-02-20T10:20:37.109Z,3.33
2024-02-20T10:23:09.787Z,4.25
2024-02-20T10:25:37.926Z,6.53
2024-02-20T10:28:08.688Z,4.35
2024-02-20T10:30:36.285Z,3.88
2024-02-20T10:33:03.786Z,4.82
2024-02-20T10:35:31.063Z,9.40
2024-02-20T10:38:02.839Z,5.22
2024-02-20T10:40:30.899Z,8.68
2024-02-20T10:42:58.495Z,5.53
2024-02-20T10:45:26.696Z,4.72
2024-02-20T10:47:56.923Z,6.07
2024-02-20T10:50:24.734Z,3.88
2024-02-20T10:52:56.247Z,4.40
2024-02-20T10:55:31.890Z,3.70
2024-02-20T10:58:04.546Z,4.35
2024-02-20T11:00:35.432Z,6.40
2024-02-20T11:03:06.188Z,2.65
2024-02-20T11:05:33.968Z,2.80
2024-02-20T11:08:12.326Z,3.33
2024-02-20T11:10:41.677Z,3.10
2024-02-20T11:13:21.636Z,2.20
2024-02-20T11:15:50.286Z,2.58
2024-02-20T11:18:19.717Z,2.55
2024-02-20T11:20:47.900Z,2.88
2024-02-20T11:23:14.859Z,3.97
2024-02-20T11:25:45.135Z,3.85
2024-02-20T11:28:16.626Z,2.75
2024-02-20T11:30:47.385Z,2.60
2024-02-20T11:33:17.816Z,2.80
2024-02-20T11:35:47.326Z,4.65
2024-02-20T11:38:18.090Z,1.75
2024-02-20T11:40:45.424Z,1.58
2024-02-20T11:43:12.645Z,1.42
2024-02-20T11:45:39.604Z,1.60
2024-02-20T11:48:08.894Z,2.17
2024-02-20T11:50:38.434Z,3.42
2024-02-20T11:53:10.705Z,2.65
2024-02-20T11:55:42.214Z,2.42
2024-02-20T11:58:09.691Z,2.60
2024-02-20T12:00:39.329Z,3.28
2024-02-20T12:03:09.130Z,1.95
2024-02-20T12:05:41.508Z,1.60
2024-02-20T12:08:15.692Z,1.83
2024-02-20T12:10:43.723Z,1.90
2024-02-20T12:13:21.896Z,2.33
2024-02-20T12:15:52.623Z,2.17
2024-02-20T12:18:27.207Z,2.75
2024-02-20T12:21:04.552Z,2.33
2024-02-20T12:23:31.640Z,2.22
2024-02-20T12:26:14.139Z,4.10
2024-02-20T12:28:41.443Z,3.47
2024-02-20T12:31:09.705Z,3.75
2024-02-20T12:33:37.534Z,3.05
2024-02-20T12:36:09.404Z,5.10
2024-02-20T12:38:36.395Z,3.22
2024-02-20T12:41:03.396Z,2.15
2024-02-20T12:43:30.398Z,4.13
2024-02-20T12:45:57.475Z,2.25
2024-02-20T12:48:24.469Z,2.53
2024-02-20T12:50:52.019Z,1.60
2024-02-20T12:53:18.936Z,2.40
2024-02-20T12:55:45.943Z,3.85
2024-02-20T12:58:13.916Z,2.95
2024-02-20T13:00:40.877Z,2.42
2024-02-20T13:03:09.232Z,2.47
2024-02-20T13:08:08.425Z,1.77
2024-02-20T13:10:35.847Z,2.58
2024-02-20T13:13:04.713Z,1.60
2024-02-20T13:15:31.777Z,3.38
2024-02-20T13:17:58.849Z,2.90
2024-02-20T13:20:33.795Z,3.28
2024-02-20T13:23:01.512Z,3.03
2024-02-20T13:25:28.740Z,2.33
2024-02-20T13:27:55.737Z,2.08
2024-02-20T13:30:23.145Z,3.20
2024-02-20T13:32:50.115Z,3.05
2024-02-20T13:35:19.478Z,1.40
2024-02-20T13:37:50.190Z,2.28
2024-02-20T13:40:19.052Z,6.30
2024-02-20T13:42:46.952Z,5.82
2024-02-20T13:45:15.454Z,4.00
2024-02-20T13:47:42.443Z,2.08
2024-02-20T13:50:10.307Z,2.63
2024-02-20T13:52:37.427Z,2.20
2024-02-20T13:55:05.027Z,1.83
2024-02-20T13:57:32.055Z,1.65
2024-02-20T13:59:59.128Z,1.70
2024-02-20T14:02:26.071Z,1.40
2024-02-20T14:04:53.093Z,1.20
2024-02-20T14:07:21.330Z,1.35
2024-02-20T14:09:48.435Z,1.70
2024-02-20T14:12:15.615Z,2.58
2024-02-20T14:14:42.517Z,2.28
2024-02-20T14:17:09.474Z,1.95
2024-02-20T14:19:36.847Z,1.70
2024-02-20T14:22:05.007Z,1.88
2024-02-20T14:24:32.166Z,1.92
2024-02-20T14:27:00.928Z,2.03
2024-02-20T14:29:28.094Z,4.40
2024-02-20T14:31:55.242Z,3.67
2024-02-20T14:34:22.360Z,2.33
2024-02-20T14:36:49.491Z,1.60
2024-02-20T14:39:18.989Z,1.58
2024-02-20T14:41:47.885Z,2.55
2024-02-20T14:44:18.020Z,2.47
2024-02-20T14:46:45.411Z,2.92
2024-02-20T14:49:15.564Z,3.05
2024-02-20T14:51:42.939Z,4.45
2024-02-20T14:54:09.953Z,5.03
2024-02-20T14:56:37.597Z,3.78
2024-02-20T14:59:09.742Z,3.60
2024-02-20T15:01:37.823Z,3.22
2024-02-20T15:04:05.706Z,3.60
2024-02-20T15:06:33.059Z,2.30
2024-02-20T15:09:01.361Z,3.65
2024-02-20T15:11:31.566Z,2.83
2024-02-20T15:13:59.203Z,6.32
2024-02-20T15:16:26.363Z,3.55
2024-02-20T15:18:53.525Z,2.55
2024-02-20T15:21:21.200Z,5.35
2024-02-20T15:23:48.583Z,3.55
2024-02-20T15:26:15.544Z,4.82
2024-02-20T15:28:43.188Z,3.05
2024-02-20T15:31:10.576Z,3.55
2024-02-20T15:33:37.801Z,4.10
2024-02-20T15:36:05.365Z,5.30
2024-02-20T15:38:32.489Z,4.78
2024-02-20T15:40:59.503Z,3.75
2024-02-20T15:43:26.965Z,4.15
2024-02-20T15:45:54.364Z,6.25
2024-02-20T15:48:21.446Z,4.97
2024-02-20T15:50:51.456Z,7.82
2024-02-20T15:53:21.282Z,6.72
2024-02-20T15:55:48.561Z,4.75
2024-02-20T15:58:17.114Z,12.73
2024-02-20T16:00:44.696Z,11.43
2024-02-20T16:03:12.854Z,6.18
2024-02-20T16:05:41.014Z,9.30
2024-02-20T16:08:09.990Z,4.85
2024-02-20T16:10:37.753Z,6.20
2024-02-20T16:13:06.363Z,6.20
2024-02-20T16:15:33.764Z,9.45
2024-02-20T16:18:01.361Z,8.25
2024-02-20T16:20:29.809Z,8.30
2024-02-20T16:22:58.756Z,4.60
2024-02-20T16:25:27.699Z,7.18
2024-02-20T16:27:55.308Z,7.78
2024-02-20T16:30:22.666Z,8.75
2024-02-20T16:32:49.723Z,7.63
2024-02-20T16:35:17.159Z,8.98
2024-02-20T16:37:44.447Z,9.50
2024-02-20T16:40:12.273Z,9.35
2024-02-20T16:42:39.280Z,7.97
2024-02-20T16:45:06.662Z,12.20
2024-02-20T16:47:35.625Z,7.53
2024-02-20T16:50:03.437Z,10.77
2024-02-20T16:52:30.645Z,11.82
2024-02-20T16:54:57.899Z,7.97
2024-02-20T16:57:25.931Z,9.85
2024-02-20T16:59:53.181Z,9.10
2024-02-20T17:02:20.515Z,7.97
2024-02-20T17:04:48.295Z,10.85
2024-02-20T17:07:20.057Z,15.63
2024-02-20T17:09:48.634Z,18.23
2024-02-20T17:12:16.078Z,16.48
2024-02-20T17:14:43.848Z,16.13
2024-02-20T17:17:10.828Z,14.02
2024-02-20T17:19:38.983Z,15.52
2024-02-20T17:22:06.790Z,16.83
2024-02-20T17:24:33.812Z,17.27
2024-02-20T17:27:00.768Z,12.50
2024-02-20T17:29:28.779Z,11.65
2024-02-20T17:31:56.213Z,19.30
2024-02-20T17:34:24.031Z,19.70
2024-02-20T17:36:53.335Z,15.30
2024-02-20T17:39:22.125Z,17.73
2024-02-20T17:41:49.270Z,18.98
2024-02-20T17:44:17.260Z,15.07
2024-02-20T17:46:44.221Z,23.35
2024-02-20T17:49:11.479Z,19.58
2024-02-20T17:51:38.568Z,9.02
2024-02-20T17:54:08.921Z,16.65
2024-02-20T17:56:36.395Z,13.68
2024-02-20T17:59:05.090Z,15.27
2024-02-20T18:01:33.371Z,14.25
2024-02-20T18:04:00.873Z,10.52
2024-02-20T18:06:29.129Z,18.30
2024-02-20T18:08:56.318Z,14.30
2024-02-20T18:11:23.378Z,13.20
2024-02-20T18:13:52.119Z,19.02
2024-02-20T18:16:19.528Z,14.80
2024-02-20T18:18:47.585Z,16.63
2024-02-20T18:21:14.742Z,15.73
2024-02-20T18:23:41.588Z,14.73
2024-02-20T18:26:09.238Z,19.48
2024-02-20T18:28:36.984Z,21.73
2024-02-20T18:31:04.378Z,16.70
2024-02-20T18:33:31.355Z,17.10
2024-02-20T18:35:58.456Z,17.30
2024-02-20T18:38:27.264Z,15.30
2024-02-20T18:40:55.643Z,19.42
2024-02-20T18:43:24.677Z,21.67
2024-02-20T18:45:53.954Z,19.15
2024-02-20T18:48:22.757Z,17.63
2024-02-20T18:50:50.102Z,23.95
2024-02-20T18:53:18.623Z,18.73
2024-02-20T18:55:45.875Z,21.98
2024-02-20T18:58:13.064Z,19.77
2024-02-20T19:00:40.548Z,22.52
2024-02-20T19:03:07.714Z,13.40
2024-02-20T19:05:34.705Z,18.55
2024-02-20T19:08:01.797Z,18.38
2024-02-20T19:10:28.862Z,22.88
2024-02-20T19:12:55.777Z,22.55
2024-02-20T19:15:23.182Z,18.60
2024-02-20T19:17:50.131Z,25.13
2024-02-20T19:20:20.170Z,24.63
2024-02-20T19:22:47.673Z,19.80
2024-02-20T19:25:15.011Z,26.23
2024-02-20T19:27:47.085Z,24.42
2024-02-20T19:30:16.038Z,24.98
2024-02-20T19:32:46.110Z,18.92
2024-02-20T19:35:13.196Z,25.80
2024-02-20T19:37:40.334Z,23.38
2024-02-20T19:40:08.013Z,24.92
2024-02-20T19:42:35.206Z,20.38
2024-02-20T19:45:03.861Z,20.33
2024-02-20T19:47:30.817Z,21.75
2024-02-20T19:49:57.792Z,19.27
2024-02-20T19:52:24.839Z,22.73
2024-02-20T19:54:51.908Z,27.05
2024-02-20T19:57:19.035Z,23.30
2024-02-20T19:59:49.748Z,26.42
2024-02-20T20:02:16.816Z,19.05
2024-02-20T20:04:43.992Z,25.55
2024-02-20T20:07:11.398Z,26.52
2024-02-20T20:09:42.549Z,20.98
2024-02-20T20:12:11.301Z,27.80
2024-02-20T20:14:38.232Z,30.63
2024-02-20T20:17:06.412Z,23.70
2024-02-20T20:19:36.578Z,25.27
2024-02-20T20:22:06.462Z,24.52
2024-02-20T20:24:33.486Z,22.92
2024-02-20T20:27:01.751Z,24.55
2024-02-20T20:29:29.864Z,25.20
2024-02-20T20:31:56.892Z,27.15
2024-02-20T20:34:23.978Z,27.67
2024-02-20T20:36:55.450Z,26.35
2024-02-20T20:39:23.102Z,22.10
2024-02-20T20:41:50.023Z,27.48
2024-02-20T20:44:16.928Z,30.73
2024-02-20T20:46:44.048Z,22.98
2024-02-20T20:49:12.161Z,28.20
2024-02-20T20:51:39.262Z,23.80
2024-02-20T20:54:06.242Z,34.55
2024-02-20T20:56:34.466Z,28.23
2024-02-20T20:59:02.199Z,21.08
2024-02-20T21:01:30.653Z,29.42
2024-02-20T21:04:00.139Z,27.98
2024-02-20T21:06:32.424Z,28.35
2024-02-20T21:09:00.851Z,31.83
2024-02-20T21:11:27.936Z,38.92
2024-02-20T21:13:55.022Z,25.17
2024-02-20T21:16:23.749Z,29.75
2024-02-20T21:18:51.066Z,31.38
2024-02-20T21:21:19.743Z,32.28
2024-02-20T21:23:49.495Z,28.17
2024-02-20T21:26:16.596Z,23.70
2024-02-20T21:28:43.633Z,31.88
2024-02-20T21:31:10.888Z,27.30
2024-02-20T21:33:38.266Z,26.33
2024-02-20T21:36:06.094Z,34.53
2024-02-20T21:38:34.037Z,25.95
2024-02-20T21:41:02.291Z,27.15
2024-02-20T21:43:29.698Z,37.35
2024-02-20T21:45:56.658Z,28.02
2024-02-20T21:48:24.245Z,24.35
2024-02-20T21:50:51.645Z,30.60
2024-02-20T21:53:18.704Z,34.13
2024-02-20T21:55:45.622Z,28.88
2024-02-20T21:58:12.635Z,32.08
2024-02-20T22:00:39.626Z,28.08
2024-02-20T22:03:07.373Z,32.78
2024-02-20T22:05:34.342Z,24.95
2024-02-20T22:08:02.248Z,29.55
2024-02-20T22:10:29.406Z,33.40
2024-02-20T22:12:57.474Z,28.45
2024-02-20T22:15:24.604Z,22.52
2024-02-20T22:17:51.684Z,24.23
2024-02-20T22:20:18.991Z,31.63
2024-02-20T22:22:45.991Z,24.02
2024-02-20T22:25:12.996Z,26.60
2024-02-20T22:27:39.946Z,32.10
2024-02-20T22:30:07.488Z,39.90
2024-02-20T22:32:34.496Z,32.83
2024-02-20T22:35:01.595Z,30.35
2024-02-20T22:37:28.683Z,42.33
2024-02-20T22:39:55.567Z,40.08
2024-02-20T22:42:23.458Z,34.13
2024-02-20T22:44:50.349Z,36.60
2024-02-20T22:47:17.282Z,30.85
2024-02-20T22:49:46.723Z,27.58
2024-02-20T22:52:14.137Z,35.40
2024-02-20T22:54:41.225Z,37.42
2024-02-20T22:57:08.204Z,28.75
2024-02-20T22:59:36.378Z,24.17
2024-02-20T23:02:03.978Z,30.33
2024-02-20T23:04:31.197Z,31.17
2024-02-20T23:06:58.430Z,35.28
2024-02-20T23:09:25.430Z,38.63
2024-02-20T23:11:52.691Z,26.70
2024-02-20T23:14:19.672Z,27.73
2024-02-20T23:16:48.690Z,27.48
2024-02-20T23:19:16.507Z,30.38
2024-02-20T23:21:43.759Z,23.75
2024-02-20T23:24:10.713Z,25.77
2024-02-20T23:26:37.606Z,26.33
2024-02-20T23:29:04.592Z,22.52
2024-02-20T23:31:31.662Z,19.38
2024-02-20T23:33:58.886Z,20.55
2024-02-20T23:36:25.854Z,21.05
2024-02-20T23:38:52.727Z,20.88
2024-02-20T23:41:19.731Z,22.92
2024-02-20T23:43:46.938Z,25.45
2024-02-20T23:46:14.401Z,17.40
2024-02-20T23:48:41.548Z,23.92
2024-02-20T23:51:08.636Z,25.02
2024-02-20T23:53:35.648Z,21.17
2024-02-20T23:56:03.128Z,25.52
2024-02-20T23:58:30.236Z,16.25
